Time;durP1;ratioP1;P1;durP2;ratioP2;P2;SDS_P1;SDS_P2;PMS_P1;PMS_P2;Temp;Humidity;BMP_temperature;BMP_pressure;BME280_temperature;BME280_humidity;BME280_pressure;Samples;Min_cycle;Max_cycle;Signal;HPM_P1;HPM_P2
2023/05/23 00:00:13;;;;;;;33.92;11.35;;;;;;;15.61;100.00;99983.59;10453948;28;20405;-64
2023/05/23 00:05:16;;;;;;;26.98;11.38;;;;;;;15.68;100.00;100019.25;10453485;28;20129;-65
2023/05/23 00:10:17;;;;;;;43.35;12.10;;;;;;;15.66;100.00;100012.44;10454124;28;20102;-64
2023/05/23 00:15:18;;;;;;;74.65;11.65;;;;;;;15.52;100.00;99974.13;10452895;28;20489;-64
2023/05/23 00:20:20;;;;;;;165.70;15.13;;;;;;;15.62;100.00;99974.53;10453463;28;20049;-64
2023/05/23 00:25:25;;;;;;;78.80;12.85;;;;;;;15.45;100.00;99968.00;10453656;28;20401;-64
2023/05/23 00:30:27;;;;;;;27.48;11.77;;;;;;;15.53;100.00;99986.50;10454128;28;20056;-64
2023/05/23 00:35:28;;;;;;;15.30;9.60;;;;;;;15.09;100.00;99923.78;10452870;28;20040;-64
2023/05/23 00:40:29;;;;;;;19.77;9.23;;;;;;;14.41;100.00;99818.91;10453522;28;20052;-64
2023/05/23 00:45:29;;;;;;;17.77;8.93;;;;;;;15.66;100.00;100012.44;10471451;28;20048;-64
2023/05/23 00:50:30;;;;;;;36.22;10.30;;;;;;;15.64;100.00;100017.16;10461217;28;20041;-65
2023/05/23 00:55:31;;;;;;;15.65;9.40;;;;;;;15.68;100.00;100007.72;10459756;28;20036;-64
2023/05/23 01:00:33;;;;;;;16.42;9.35;;;;;;;15.71;100.00;100023.38;10459457;28;20483;-64
2023/05/23 01:05:34;;;;;;;15.25;7.97;;;;;;;15.29;100.00;99945.19;10459341;28;20073;-64
2023/05/23 01:10:36;;;;;;;24.58;8.85;;;;;;;15.55;100.00;99972.91;10459205;28;20128;-64
2023/05/23 01:15:59;;;;;;;13.52;7.43;;;;;;;15.61;100.00;99974.75;10458168;28;20068;-64
2023/05/23 01:21:09;;;;;;;55.33;9.63;;;;;;;15.60;100.00;99986.50;10458662;28;20044;-65
2023/05/23 01:26:31;;;;;;;20.45;8.93;;;;;;;15.63;100.00;99984.22;10460166;28;20033;-65
2023/05/23 01:31:35;;;;;;;31.52;11.73;;;;;;;15.58;100.00;99992.03;10467911;28;20049;-65
2023/05/23 01:36:41;;;;;;;31.58;9.77;;;;;;;15.13;100.00;99916.97;10459180;28;20045;-64
2023/05/23 01:41:42;;;;;;;14.55;8.98;;;;;;;15.44;100.00;99969.84;10458459;28;20049;-64
2023/05/23 01:46:44;;;;;;;11.52;9.18;;;;;;;15.38;100.00;99976.03;10457758;28;20068;-64
2023/05/23 01:51:45;;;;;;;16.08;10.18;;;;;;;15.48;100.00;100003.19;10457480;28;20504;-64
2023/05/23 01:56:47;;;;;;;11.32;10.18;;;;;;;15.66;100.00;100036.53;10457828;28;20044;-65
2023/05/23 02:01:48;;;;;;;9.93;8.93;;;;;;;15.65;100.00;100030.34;10457410;28;20140;-63
2023/05/23 02:06:49;;;;;;;11.23;9.45;;;;;;;15.67;100.00;100022.94;10456943;28;20550;-64
2023/05/23 02:11:50;;;;;;;10.10;9.10;;;;;;;15.35;100.00;99968.44;10457404;28;20102;-64
2023/05/23 02:16:51;;;;;;;11.50;10.07;;;;;;;15.61;100.00;100010.38;10457045;28;20401;-64
2023/05/23 02:21:52;;;;;;;11.05;9.80;;;;;;;15.83;100.00;100051.16;10457312;28;20041;-64
2023/05/23 02:26:53;;;;;;;10.60;9.18;;;;;;;15.85;100.00;100051.75;10462502;28;20409;-64
2023/05/23 02:31:53;;;;;;;10.60;9.50;;;;;;;15.78;100.00;100034.88;10462763;28;20045;-64
2023/05/23 02:36:54;;;;;;;10.93;9.27;;;;;;;15.85;100.00;100022.28;10456426;28;20045;-64
2023/05/23 02:41:55;;;;;;;12.75;9.48;;;;;;;15.59;100.00;99999.06;10496953;28;20086;-64
2023/05/23 02:46:56;;;;;;;10.73;9.68;;;;;;;15.70;100.00;100011.00;10496936;28;20098;-64
2023/05/23 02:51:57;;;;;;;11.00;9.80;;;;;;;15.88;100.00;100016.50;10496859;28;20089;-64
2023/05/23 02:56:58;;;;;;;10.48;8.15;;;;;;;15.87;100.00;100025.59;10459713;28;20041;-64
2023/05/23 03:01:59;;;;;;;9.95;7.70;;;;;;;15.86;100.00;100021.28;10455925;28;20146;-64
2023/05/23 03:06:59;;;;;;;13.45;7.65;;;;;;;15.78;100.00;100002.75;10454258;28;20505;-64
2023/05/23 03:12:00;;;;;;;9.18;7.30;;;;;;;16.03;100.00;100023.47;10465566;28;20041;-64
2023/05/23 03:17:02;;;;;;;8.65;7.72;;;;;;;16.12;100.00;100049.00;10454703;28;20492;-64
2023/05/23 03:22:03;;;;;;;9.48;8.13;;;;;;;16.18;100.00;100050.84;10454953;28;20045;-65
2023/05/23 03:27:04;;;;;;;9.07;8.18;;;;;;;16.28;100.00;100064.63;10455183;28;20143;-64
2023/05/23 03:32:05;;;;;;;10.82;8.82;;;;;;;16.28;100.00;100075.34;10454954;28;20040;-64
2023/05/23 03:37:06;;;;;;;9.07;8.18;;;;;;;16.28;100.00;100078.03;10454783;28;20511;-64
2023/05/23 03:42:07;;;;;;;10.27;9.00;;;;;;;16.21;100.00;100069.16;10479939;28;20040;-65
2023/05/23 03:47:08;;;;;;;8.90;8.00;;;;;;;16.27;100.00;100064.81;10460470;28;20045;-64
2023/05/23 03:52:09;;;;;;;10.25;9.23;;;;;;;16.32;100.00;100054.28;10452978;28;20072;-65
2023/05/23 03:57:10;;;;;;;10.45;9.32;;;;;;;16.37;100.00;100054.50;10446435;28;20045;-64
2023/05/23 04:02:11;;;;;;;18.50;8.32;;;;;;;16.52;100.00;100073.00;10446209;28;20040;-64
2023/05/23 04:07:14;;;;;;;10.20;8.48;;;;;;;16.49;100.00;100084.13;10446317;28;20033;-64
2023/05/23 04:12:15;;;;;;;9.35;8.30;;;;;;;16.51;100.00;100092.78;10447032;28;20091;-63
2023/05/23 04:17:16;;;;;;;9.52;8.05;;;;;;;16.17;100.00;100038.47;10451645;28;20037;-64
2023/05/23 04:22:17;;;;;;;13.00;8.90;;;;;;;16.56;100.00;100117.91;10457071;28;20044;-64
2023/05/23 04:27:18;;;;;;;11.23;8.70;;;;;;;15.97;100.00;100025.13;10467331;28;20091;-66
2023/05/23 04:32:21;;;;;;;9.48;8.02;;;;;;;16.58;100.00;100118.53;10463215;28;20032;-65
2023/05/23 04:37:24;;;;;;;10.20;9.10;;;;;;;16.62;100.00;100100.16;10468484;28;20075;-63
2023/05/23 04:42:26;;;;;;;10.13;8.73;;;;;;;16.94;100.00;100119.03;10460615;28;20076;-63
2023/05/23 04:47:27;;;;;;;14.45;8.98;;;;;;;16.49;100.00;100039.38;10460455;28;20090;-63
2023/05/23 04:52:29;;;;;;;10.13;9.05;;;;;;;16.99;100.00;100125.38;10460178;28;20063;-63
2023/05/23 04:57:30;;;;;;;10.52;8.05;;;;;;;17.13;100.00;100110.00;10460749;28;20128;-62
2023/05/23 05:02:34;;;;;;;9.55;8.18;;;;;;;17.24;100.00;100087.84;10458955;28;20051;-64
2023/05/23 05:07:34;;;;;;;10.20;8.38;;;;;;;17.52;100.00;100102.69;10459995;28;20037;-63
2023/05/23 05:12:35;;;;;;;9.82;7.38;;;;;;;17.90;100.00;100109.84;10459561;28;20040;-63
2023/05/23 05:17:36;;;;;;;10.73;6.80;;;;;;;18.08;100.00;100101.78;10459354;28;20041;-64
2023/05/23 05:22:41;;;;;;;6.95;6.25;;;;;;;17.50;100.00;99983.94;10459232;28;20044;-64
2023/05/23 05:27:42;;;;;;;10.35;8.93;;;;;;;18.47;100.00;100103.19;10458229;28;20135;-64
2023/05/23 05:32:45;;;;;;;11.70;8.45;;;;;;;18.57;100.00;100102.66;10458426;28;20128;-64
2023/05/23 05:37:45;;;;;;;12.43;11.23;;;;;;;18.42;100.00;100078.84;10459066;28;20082;-65
2023/05/23 05:42:46;;;;;;;15.23;12.32;;;;;;;18.79;100.00;100110.31;10458485;28;20454;-64
2023/05/23 05:47:47;;;;;;;12.68;8.27;;;;;;;18.54;100.00;100032.34;10476655;28;20037;-64
2023/05/23 05:52:48;;;;;;;9.05;7.03;;;;;;;19.04;100.00;100091.31;10465598;28;20037;-64
2023/05/23 05:57:49;;;;;;;9.15;7.70;;;;;;;19.19;100.00;100086.31;10458371;28;20044;-66
2023/05/23 06:02:56;;;;;;;8.73;7.05;;;;;;;19.42;98.57;100090.13;10457807;28;20036;-63
2023/05/23 06:07:56;;;;;;;7.53;6.47;;;;;;;19.47;97.53;100053.31;10458459;28;20040;-64
2023/05/23 06:12:58;;;;;;;6.93;6.32;;;;;;;19.19;96.08;100016.31;10485689;28;20047;-65
2023/05/23 06:17:59;;;;;;;10.70;6.25;;;;;;;19.73;95.94;100049.38;10468594;28;20135;-64
2023/05/23 06:23:00;;;;;;;6.57;5.75;;;;;;;20.11;94.55;100058.00;10458748;28;20055;-65
2023/05/23 06:28:01;;;;;;;6.38;5.78;;;;;;;20.69;92.90;100048.91;10456476;28;20110;-65
2023/05/23 06:33:02;;;;;;;5.90;5.30;;;;;;;20.77;90.09;100029.66;10456559;28;20041;-64
2023/05/23 06:38:02;;;;;;;6.82;5.18;;;;;;;20.30;90.16;99986.66;10454800;28;20064;-65
2023/05/23 06:43:03;;;;;;;8.43;5.45;;;;;;;21.70;88.89;100062.50;10455513;28;20075;-66
2023/05/23 06:48:05;;;;;;;5.82;4.78;;;;;;;21.50;86.64;99963.03;10454679;28;20049;-65
2023/05/23 06:53:07;;;;;;;7.72;4.40;;;;;;;22.29;85.99;100081.75;10460334;28;20062;-65
2023/05/23 06:58:07;;;;;;;6.32;4.43;;;;;;;22.46;84.07;100088.97;10483069;28;20098;-64
2023/05/23 07:03:08;;;;;;;6.50;4.28;;;;;;;22.44;82.28;100074.88;10488663;28;20041;-64
2023/05/23 07:08:10;;;;;;;9.35;4.65;;;;;;;22.77;83.27;100077.41;10480870;28;20040;-64
2023/05/23 07:13:12;;;;;;;6.47;4.05;;;;;;;22.15;82.39;100001.16;10454976;28;20508;-65
2023/05/23 07:18:13;;;;;;;6.97;3.55;;;;;;;22.89;82.99;100050.16;10454216;28;20041;-63
2023/05/23 07:23:15;;;;;;;4.38;3.90;;;;;;;23.05;80.79;100067.41;10454838;28;20457;-63
2023/05/23 07:28:16;;;;;;;7.43;3.92;;;;;;;22.79;80.45;100058.19;10454729;28;20106;-64
2023/05/23 07:33:18;;;;;;;4.60;3.77;;;;;;;22.96;80.20;100039.16;10453820;28;20412;-66
2023/05/23 07:38:19;;;;;;;4.60;3.55;;;;;;;22.93;79.37;99974.63;10474835;28;20131;-64
2023/05/23 07:43:21;;;;;;;5.45;3.70;;;;;;;23.49;78.61;99988.59;10495739;28;20044;-65
2023/05/23 07:48:22;;;;;;;6.43;3.97;;;;;;;24.06;77.44;100052.94;10496345;28;20041;-65
2023/05/23 07:53:22;;;;;;;3.88;3.10;;;;;;;24.37;76.37;100047.63;10503803;28;20032;-65
2023/05/23 07:58:23;;;;;;;6.05;3.42;;;;;;;24.45;76.25;100021.91;10503992;28;20048;-65
2023/05/23 08:03:24;;;;;;;16.92;3.47;;;;;;;24.62;74.79;100027.94;10503664;28;20041;-65
2023/05/23 08:08:25;;;;;;;10.35;3.92;;;;;;;24.83;75.56;100001.63;10496161;28;20094;-65
2023/05/23 08:13:25;;;;;;;5.22;4.00;;;;;;;24.52;74.23;99962.72;10477360;28;20389;-65
2023/05/23 08:18:27;;;;;;;5.72;3.45;;;;;;;24.89;73.99;100000.53;10502142;28;20040;-65
2023/05/23 08:23:27;;;;;;;12.43;3.67;;;;;;;25.44;74.45;100006.22;10498058;28;20445;-64
2023/05/23 08:28:28;;;;;;;6.60;3.55;;;;;;;25.19;72.25;99939.13;10460757;28;20053;-64
2023/05/23 08:33:29;;;;;;;6.55;3.13;;;;;;;25.68;71.04;99980.03;10461522;28;20464;-65
2023/05/23 08:38:30;;;;;;;17.83;8.25;;;;;;;25.84;72.20;99983.53;10460899;28;20044;-64
2023/05/23 08:43:31;;;;;;;6.78;3.50;;;;;;;25.77;71.98;99974.84;10460239;28;20123;-64
2023/05/23 08:48:36;;;;;;;6.47;4.15;;;;;;;25.96;70.08;99959.53;10459777;28;20135;-65
2023/05/23 08:53:41;;;;;;;9.00;4.70;;;;;;;25.80;70.27;99938.91;10459952;28;20045;-66
2023/05/23 08:58:42;;;;;;;20.38;9.90;;;;;;;25.63;69.89;99928.38;10459642;28;20095;-66
2023/05/23 09:03:43;;;;;;;14.00;4.30;;;;;;;25.55;70.57;99901.75;10474996;28;20185;-66
2023/05/23 09:08:45;;;;;;;5.50;3.10;;;;;;;25.55;69.87;99871.00;10482343;28;20049;-64
2023/05/23 09:13:47;;;;;;;9.30;3.38;;;;;;;26.04;68.44;99944.53;10459552;28;20068;-65
2023/05/23 09:18:47;;;;;;;3.83;2.65;;;;;;;26.28;67.72;99908.47;10477615;28;20048;-67
2023/05/23 09:23:49;;;;;;;10.57;2.63;;;;;;;26.34;67.47;99897.25;10459365;28;20520;-66
2023/05/23 09:28:50;;;;;;;7.47;3.40;;;;;;;26.70;66.54;99918.81;10459283;28;20511;-64
2023/05/23 09:33:50;;;;;;;3.85;2.17;;;;;;;26.74;65.04;99889.88;10458829;28;20044;-64
2023/05/23 09:38:51;;;;;;;10.55;3.22;;;;;;;27.00;62.66;99901.34;10458841;28;20070;-65
2023/05/23 09:43:53;;;;;;;21.02;3.70;;;;;;;26.86;62.86;99824.91;10459206;28;20451;-65
2023/05/23 09:48:55;;;;;;;12.93;4.07;;;;;;;27.21;62.39;99907.44;10458249;28;20045;-65
2023/05/23 09:53:56;;;;;;;9.98;4.03;;;;;;;26.77;62.05;99851.16;10458084;28;20037;-66
2023/05/23 09:58:58;;;;;;;15.77;7.57;;;;;;;27.36;61.07;99897.47;10458306;28;20036;-65
2023/05/23 10:03:59;;;;;;;8.95;3.25;;;;;;;27.35;60.99;99906.75;10457472;28;20497;-66
2023/05/23 10:09:04;;;;;;;5.53;3.00;;;;;;;27.58;58.09;99913.28;10457573;28;20494;-64
2023/05/23 10:14:09;;;;;;;8.63;2.83;;;;;;;28.01;59.24;99913.31;10457133;28;20069;-65
2023/05/23 10:19:16;;;;;;;11.07;3.67;;;;;;;28.31;58.31;99901.94;10457175;28;20052;-65
2023/05/23 10:24:18;;;;;;;6.57;3.58;;;;;;;27.59;58.21;99773.06;10456412;28;20041;-66
2023/05/23 10:29:21;;;;;;;9.83;2.80;;;;;;;28.10;60.17;99849.56;10456169;28;20057;-66
2023/05/23 10:34:28;;;;;;;193.27;12.02;;;;;;;28.30;59.05;99877.66;10456905;28;20048;-64
2023/05/23 10:40:11;;;;;;;17.98;5.28;;;;;;;28.34;57.05;99882.22;10455692;28;20072;-64
2023/05/23 10:45:19;;;;;;;12.43;5.05;;;;;;;28.31;54.43;99882.03;10435255;28;20053;-65
2023/05/23 10:50:35;;;;;;;6.07;2.28;;;;;;;28.16;56.19;99894.81;10464955;28;20045;-65
2023/05/23 10:55:37;;;;;;;4.32;2.50;;;;;;;28.20;56.52;99904.00;10474703;28;20400;-67
2023/05/23 11:00:37;;;;;;;5.20;2.50;;;;;;;28.20;56.03;99901.28;10455540;28;20041;-65
2023/05/23 11:05:51;;;;;;;5.78;2.10;;;;;;;28.43;54.93;99894.13;10466847;28;20131;-64
2023/05/23 11:11:02;;;;;;;22.73;6.65;;;;;;;28.49;53.92;99886.66;10455282;28;20488;-64
2023/05/23 11:16:26;;;;;;;44.53;4.45;;;;;;;27.97;58.10;99883.88;10469061;28;20135;-65
2023/05/23 11:21:28;;;;;;;31.13;3.38;;;;;;;27.85;57.68;99869.03;10474163;28;20040;-65
2023/05/23 11:26:31;;;;;;;20.75;5.63;;;;;;;28.11;57.64;99878.47;10465887;28;20056;-65
2023/05/23 11:31:36;;;;;;;42.57;25.23;;;;;;;27.68;56.26;99862.16;10478023;28;20074;-65
2023/05/23 11:36:41;;;;;;;12.43;7.20;;;;;;;27.64;57.66;99885.69;10476082;28;20047;-65
2023/05/23 11:41:57;;;;;;;20.00;8.80;;;;;;;28.17;55.49;99879.22;10472579;28;20045;-66
2023/05/23 11:47:06;;;;;;;8.65;3.33;;;;;;;27.80;55.39;99785.31;10476116;28;20040;-66
2023/05/23 11:52:07;;;;;;;5.40;2.20;;;;;;;27.66;56.02;99820.69;10474705;28;20532;-65
2023/05/23 11:57:09;;;;;;;4.85;2.42;;;;;;;28.17;55.77;99890.16;10475496;28;20034;-65
2023/05/23 12:02:09;;;;;;;12.52;2.90;;;;;;;28.50;55.23;99884.75;10467630;28;20123;-67
2023/05/23 12:07:10;;;;;;;21.77;2.92;;;;;;;28.35;55.30;99869.38;10474188;28;20062;-66
2023/05/23 12:12:15;;;;;;;6.22;3.03;;;;;;;28.40;54.75;99888.44;10474429;28;20060;-66
2023/05/23 12:17:16;;;;;;;19.08;2.75;;;;;;;28.31;55.57;99879.28;10475171;28;20051;-66
2023/05/23 12:22:23;;;;;;;11.02;2.58;;;;;;;28.22;54.10;99828.06;10472852;28;20047;-63
2023/05/23 12:27:35;;;;;;;9.55;2.00;;;;;;;28.65;54.72;99896.22;10473389;28;20067;-65
2023/05/23 12:32:40;;;;;;;8.95;3.80;;;;;;;28.27;53.02;99878.25;10476765;28;20048;-65
2023/05/23 12:37:44;;;;;;;8.13;2.90;;;;;;;28.41;54.67;99892.81;10483707;28;20040;-65
2023/05/23 12:42:57;;;;;;;14.98;2.50;;;;;;;28.06;53.47;99845.81;10473210;28;20128;-65
2023/05/23 12:47:57;;;;;;;6.75;3.40;;;;;;;28.29;52.54;99878.75;10474659;28;20037;-64
2023/05/23 12:52:58;;;;;;;8.70;2.50;;;;;;;28.43;52.72;99882.41;10501728;28;20052;-64
2023/05/23 12:57:59;;;;;;;11.63;2.45;;;;;;;28.20;52.35;99873.16;10501150;28;20039;-66
2023/05/23 13:03:00;;;;;;;6.32;2.15;;;;;;;27.81;52.24;99805.22;10492807;28;20038;-65
2023/05/23 13:08:02;;;;;;;9.68;4.15;;;;;;;28.24;52.71;99874.22;10460964;28;20040;-64
2023/05/23 13:13:03;;;;;;;13.35;3.00;;;;;;;27.79;52.79;99804.72;10488863;28;20133;-64
2023/05/23 13:18:04;;;;;;;8.30;3.10;;;;;;;28.33;52.69;99868.84;10500281;28;20040;-66
2023/05/23 13:23:05;;;;;;;8.88;2.38;;;;;;;28.00;52.63;99833.34;10473869;28;20045;-66
2023/05/23 13:28:06;;;;;;;11.95;2.70;;;;;;;28.26;52.19;99862.97;10467410;28;20147;-65
2023/05/23 13:33:07;;;;;;;6.68;3.05;;;;;;;28.12;51.22;99852.81;10499013;28;20090;-67
2023/05/23 13:38:08;;;;;;;11.88;2.85;;;;;;;27.79;52.17;99797.34;10467490;28;20033;-67
2023/05/23 13:43:09;;;;;;;7.55;2.13;;;;;;;27.81;51.26;99794.31;10480055;28;20032;-66
2023/05/23 13:48:09;;;;;;;6.45;2.22;;;;;;;28.18;52.05;99840.69;10473458;28;20045;-66
2023/05/23 13:53:15;;;;;;;7.40;2.30;;;;;;;28.12;51.72;99805.56;10480247;28;20473;-66
2023/05/23 13:58:16;;;;;;;8.45;2.20;;;;;;;28.26;50.87;99839.19;10492230;28;20102;-67
2023/05/23 14:03:18;;;;;;;6.55;2.22;;;;;;;28.27;50.68;99834.53;10489302;28;20638;-66
2023/05/23 14:08:18;;;;;;;8.00;3.72;;;;;;;27.95;51.14;99800.66;10466512;28;20047;-66
2023/05/23 14:13:20;;;;;;;13.40;3.92;;;;;;;27.96;51.62;99835.03;10457135;28;20136;-66
2023/05/23 14:18:21;;;;;;;6.15;2.20;;;;;;;27.96;51.61;99822.19;10483537;28;20090;-66
2023/05/23 14:23:22;;;;;;;15.60;3.00;;;;;;;27.83;51.93;99792.91;10492538;28;20454;-66
2023/05/23 14:28:23;;;;;;;11.57;3.00;;;;;;;27.90;51.62;99798.00;10456694;28;20398;-65
2023/05/23 14:33:24;;;;;;;9.40;3.17;;;;;;;27.87;51.78;99801.31;10498444;28;20040;-66
2023/05/23 14:38:25;;;;;;;10.65;3.17;;;;;;;27.94;51.90;99812.66;10497468;28;20073;-65
2023/05/23 14:43:26;;;;;;;16.35;3.20;;;;;;;27.84;51.68;99799.19;10497613;28;20538;-65
2023/05/23 14:48:27;;;;;;;13.98;2.85;;;;;;;27.85;51.81;99801.63;10456292;28;20048;-67
2023/05/23 14:53:28;;;;;;;10.45;3.13;;;;;;;27.72;51.68;99792.22;10483553;28;20041;-66
2023/05/23 14:58:28;;;;;;;11.05;2.80;;;;;;;27.53;52.01;99767.66;10496046;28;20430;-66
2023/05/23 15:03:29;;;;;;;16.70;2.92;;;;;;;27.43;51.95;99756.91;10496240;28;20048;-66
2023/05/23 15:08:30;;;;;;;9.85;3.42;;;;;;;27.58;52.97;99768.69;10491679;28;20127;-66
2023/05/23 15:13:31;;;;;;;27.30;11.50;;;;;;;27.42;52.59;99759.91;10454837;28;20033;-67
2023/05/23 15:18:32;;;;;;;27.90;9.35;;;;;;;27.11;53.20;99746.66;10453226;28;20032;-67
2023/05/23 15:23:33;;;;;;;10.02;5.07;;;;;;;26.72;52.81;99695.09;10454099;28;20053;-67
2023/05/23 15:28:34;;;;;;;17.73;6.30;;;;;;;26.95;53.22;99742.50;10454308;28;20068;-66
2023/05/23 15:33:34;;;;;;;15.48;4.85;;;;;;;26.88;53.86;99759.22;10454041;28;20124;-67
2023/05/23 15:38:35;;;;;;;8.45;2.92;;;;;;;26.86;54.07;99777.75;10454254;28;20045;-66
2023/05/23 15:43:36;;;;;;;5.97;2.72;;;;;;;26.35;54.49;99716.44;10453718;28;20132;-66
2023/05/23 15:48:37;;;;;;;9.75;2.67;;;;;;;26.56;54.99;99774.25;10454163;28;20041;-65
2023/05/23 15:53:37;;;;;;;12.80;2.30;;;;;;;26.42;55.68;99770.56;10469657;28;20040;-66
2023/05/23 15:58:38;;;;;;;4.15;2.53;;;;;;;26.24;56.31;99769.38;10453746;28;20404;-66
2023/05/23 16:03:39;;;;;;;202.80;119.65;;;;;;;26.13;57.25;99784.97;10453825;28;20041;-66
2023/05/23 16:08:40;;;;;;;120.43;63.75;;;;;;;25.98;58.01;99781.56;10453140;28;20037;-66
2023/05/23 16:13:41;;;;;;;68.82;31.75;;;;;;;25.83;58.93;99779.78;10460393;28;20041;-66
2023/05/23 16:18:41;;;;;;;47.95;27.05;;;;;;;25.66;59.59;99794.53;10462124;28;20041;-66
2023/05/23 16:23:42;;;;;;;29.80;11.95;;;;;;;25.05;60.57;99738.53;10459856;28;20443;-66
2023/05/23 16:28:43;;;;;;;15.30;5.50;;;;;;;25.19;61.52;99801.31;10472779;28;20065;-65
2023/05/23 16:33:44;;;;;;;41.60;23.50;;;;;;;24.86;62.26;99786.44;10461226;28;20052;-66
2023/05/23 16:38:45;;;;;;;55.05;29.35;;;;;;;24.82;63.44;99812.50;10463465;28;20051;-67
2023/05/23 16:43:46;;;;;;;96.65;51.15;;;;;;;24.65;64.31;99814.72;10466934;28;20056;-66
2023/05/23 16:48:47;;;;;;;21.40;10.68;;;;;;;23.95;65.14;99755.56;10501953;28;20041;-66
2023/05/23 16:53:48;;;;;;;24.83;9.48;;;;;;;24.27;65.97;99846.75;10500110;28;20436;-65
2023/05/23 16:58:49;;;;;;;20.23;8.15;;;;;;;24.09;66.85;99857.03;10501029;28;20040;-65
2023/05/23 17:03:50;;;;;;;35.60;17.33;;;;;;;23.37;67.95;99763.84;10459494;28;20543;-66
2023/05/23 17:08:51;;;;;;;21.40;8.60;;;;;;;23.72;68.82;99850.97;10470692;28;20039;-65
2023/05/23 17:13:52;;;;;;;16.80;5.78;;;;;;;23.57;69.98;99857.13;10477250;28;20050;-66
2023/05/23 17:18:53;;;;;;;11.05;4.35;;;;;;;23.35;70.75;99841.88;10493028;28;20044;-66
2023/05/23 17:23:53;;;;;;;15.02;6.15;;;;;;;23.16;71.41;99841.53;10459195;28;20147;-66
2023/05/23 17:28:54;;;;;;;13.15;5.45;;;;;;;22.69;72.09;99784.63;10458213;28;20065;-67
2023/05/23 17:33:55;;;;;;;12.75;4.47;;;;;;;23.12;73.13;99894.59;10474846;28;20036;-66
2023/05/23 17:38:56;;;;;;;13.48;4.10;;;;;;;22.87;73.70;99883.59;10477760;28;20044;-67
2023/05/23 17:43:56;;;;;;;17.55;3.42;;;;;;;22.81;74.12;99879.22;10482446;28;20051;-67
2023/05/23 17:48:57;;;;;;;22.38;4.50;;;;;;;21.99;74.18;99759.47;10479311;28;20046;-66
2023/05/23 17:53:58;;;;;;;16.45;4.00;;;;;;;22.40;75.12;99841.00;10483773;28;20068;-66
2023/05/23 17:59:02;;;;;;;18.40;5.78;;;;;;;22.56;75.89;99891.47;10477229;28;20496;-66
2023/05/23 18:04:03;;;;;;;23.90;5.03;;;;;;;21.88;75.90;99786.41;10480620;28;20058;-66
2023/05/23 18:09:04;;;;;;;12.55;5.00;;;;;;;22.53;76.48;99892.00;10478060;28;20204;-65
2023/05/23 18:14:06;;;;;;;23.33;4.15;;;;;;;22.37;77.00;99887.50;10478485;28;20488;-65
2023/05/23 18:19:07;;;;;;;13.70;4.20;;;;;;;22.13;77.83;99871.56;10472377;28;20505;-65
2023/05/23 18:24:10;;;;;;;16.35;4.35;;;;;;;22.22;77.55;99894.41;10472269;28;20041;-66
2023/05/23 18:29:11;;;;;;;17.10;3.92;;;;;;;21.35;77.12;99755.56;10472541;28;20493;-66
2023/05/23 18:34:12;;;;;;;13.85;4.03;;;;;;;22.19;76.74;99888.69;10477307;28;20033;-65
2023/05/23 18:39:15;;;;;;;12.65;3.58;;;;;;;22.04;76.98;99860.38;10475103;28;20076;-68
2023/05/23 18:44:16;;;;;;;16.88;3.50;;;;;;;21.55;76.72;99781.22;10474422;28;20068;-65
2023/05/23 18:49:17;;;;;;;10.43;3.70;;;;;;;21.98;76.78;99855.19;10474849;28;20082;-68
2023/05/23 18:54:18;;;;;;;10.43;3.53;;;;;;;21.92;77.24;99872.44;10459870;28;20041;-65
2023/05/23 18:59:19;;;;;;;10.45;3.85;;;;;;;21.39;77.41;99804.56;10455233;28;20041;-65
2023/05/23 19:04:20;;;;;;;22.92;4.38;;;;;;;21.32;78.00;99810.09;10484660;28;20043;-65
2023/05/23 19:09:21;;;;;;;13.68;3.97;;;;;;;21.56;78.37;99861.22;10477431;28;20124;-65
2023/05/23 19:14:22;;;;;;;15.55;4.05;;;;;;;21.48;78.85;99872.44;10465301;28;20126;-64
2023/05/23 19:19:23;;;;;;;13.43;4.20;;;;;;;21.35;79.20;99866.31;10496319;28;20039;-65
2023/05/23 19:24:24;;;;;;;13.20;3.90;;;;;;;20.92;79.17;99827.41;10469472;28;20044;-66
2023/05/23 19:29:25;;;;;;;12.85;3.90;;;;;;;21.23;79.58;99897.22;10454075;28;20049;-66
2023/05/23 19:34:26;;;;;;;8.30;3.92;;;;;;;21.18;79.58;99904.22;10463757;28;20044;-66
2023/05/23 19:39:27;;;;;;;10.25;3.58;;;;;;;21.03;79.96;99911.25;10478602;28;20507;-66
2023/05/23 19:44:27;;;;;;;9.40;3.92;;;;;;;20.42;80.15;99828.25;10465571;28;20044;-66
2023/05/23 19:49:28;;;;;;;11.50;3.67;;;;;;;20.96;80.15;99925.75;10455677;28;20086;-65
2023/05/23 19:54:29;;;;;;;9.38;3.72;;;;;;;20.44;80.34;99847.69;10495177;28;20063;-66
2023/05/23 19:59:30;;;;;;;8.73;3.63;;;;;;;20.34;80.83;99857.50;10495593;28;20067;-64
2023/05/23 20:04:31;;;;;;;7.47;3.50;;;;;;;20.71;80.97;99933.44;10495947;28;20151;-64
2023/05/23 20:09:31;;;;;;;14.48;3.90;;;;;;;20.62;81.19;99945.72;10462731;28;20072;-64
2023/05/23 20:14:33;;;;;;;9.23;3.35;;;;;;;20.46;81.68;99936.47;10454093;28;20047;-66
2023/05/23 20:19:33;;;;;;;7.65;3.55;;;;;;;20.49;81.92;99958.41;10456901;28;20114;-64
2023/05/23 20:24:34;;;;;;;8.45;3.88;;;;;;;20.39;82.17;99936.63;10495065;28;20101;-64
2023/05/23 20:29:36;;;;;;;6.55;3.25;;;;;;;20.27;82.50;99934.00;10491957;28;20520;-65
2023/05/23 20:34:37;;;;;;;9.90;4.07;;;;;;;20.05;83.00;99925.78;10453142;28;20068;-64
2023/05/23 20:39:40;;;;;;;7.22;3.72;;;;;;;19.97;83.42;99928.84;10453565;28;20481;-64
2023/05/23 20:44:41;;;;;;;8.03;3.90;;;;;;;19.87;84.00;99931.34;10452669;28;20548;-64
2023/05/23 20:49:42;;;;;;;10.70;3.95;;;;;;;19.78;84.52;99920.13;10452450;28;20037;-64
2023/05/23 20:54:42;;;;;;;8.85;3.80;;;;;;;19.78;84.94;99905.84;10452220;28;20045;-64
2023/05/23 20:59:44;;;;;;;12.10;4.00;;;;;;;19.69;85.31;99885.72;10458350;28;20037;-65
2023/05/23 21:04:45;;;;;;;8.95;3.90;;;;;;;19.75;85.32;99898.22;10475446;28;20499;-65
2023/05/23 21:09:46;;;;;;;7.25;4.15;;;;;;;19.72;85.32;99910.31;10460089;28;20039;-65
2023/05/23 21:14:47;;;;;;;10.63;4.50;;;;;;;19.78;85.62;99928.22;10460189;28;20131;-65
2023/05/23 21:19:48;;;;;;;8.77;3.95;;;;;;;19.67;86.10;99909.38;10459613;28;20520;-67
2023/05/23 21:24:49;;;;;;;11.90;5.30;;;;;;;19.61;86.58;99878.78;10458813;28;20049;-65
2023/05/23 21:29:50;;;;;;;8.25;4.50;;;;;;;19.15;86.84;99794.34;10458269;28;20076;-65
2023/05/23 21:34:51;;;;;;;10.88;4.38;;;;;;;19.68;87.35;99886.75;10459516;28;20040;-65
2023/05/23 21:39:51;;;;;;;11.05;3.75;;;;;;;19.62;87.51;99928.91;10458066;28;20440;-66
2023/05/23 21:44:52;;;;;;;7.35;4.10;;;;;;;19.70;88.24;99942.03;10457859;28;20045;-65
2023/05/23 21:49:53;;;;;;;9.48;4.35;;;;;;;19.52;89.12;99934.91;10457829;28;20037;-65
2023/05/23 21:54:54;;;;;;;7.60;4.32;;;;;;;19.42;89.54;99923.09;10453739;28;20126;-66
2023/05/23 21:59:54;;;;;;;9.55;4.47;;;;;;;19.37;90.44;99927.31;10450427;28;20037;-66
2023/05/23 22:04:55;;;;;;;16.02;4.97;;;;;;;19.41;90.40;99943.00;10451890;28;20051;-66
2023/05/23 22:09:56;;;;;;;10.32;4.60;;;;;;;19.58;90.34;100004.00;10451351;28;20044;-66
2023/05/23 22:14:57;;;;;;;9.20;4.60;;;;;;;19.58;90.63;99993.22;10450673;28;20041;-66
2023/05/23 22:19:59;;;;;;;8.35;4.75;;;;;;;19.46;91.43;100005.88;10455208;28;20041;-65
2023/05/23 22:25:00;;;;;;;10.60;4.05;;;;;;;19.32;91.53;99983.75;10457395;28;20056;-65
2023/05/23 22:30:01;;;;;;;8.38;5.18;;;;;;;19.09;92.19;99983.75;10456690;28;20055;-65
2023/05/23 22:35:02;;;;;;;10.02;4.88;;;;;;;19.05;93.08;100007.59;10456148;28;20045;-65
2023/05/23 22:40:04;;;;;;;9.57;4.80;;;;;;;19.10;93.17;100007.75;10451054;28;20592;-67
2023/05/23 22:45:06;;;;;;;7.40;5.38;;;;;;;18.83;93.58;99985.81;10450472;28;20037;-66
2023/05/23 22:50:08;;;;;;;8.35;5.65;;;;;;;18.51;94.37;99934.13;10450008;28;20037;-67
2023/05/23 22:55:09;;;;;;;14.43;5.50;;;;;;;19.04;94.65;100040.97;10449593;28;20045;-68
2023/05/23 23:00:12;;;;;;;9.15;4.70;;;;;;;18.68;94.51;99969.25;10448742;28;20040;-66